sensor_id;sensor_type;location;lat;lon;timestamp;P1;durP1;ratioP1;P2;durP2;ratioP2
36241;SDS011;22283;42.748;12.732;2023-03-19T00:01:31;14.07;;;5.18;;
36241;SDS011;22283;42.748;12.732;2023-03-19T00:06:32;12.57;;;5.20;;
36241;SDS011;22283;42.748;12.732;2023-03-19T00:11:33;16.50;;;4.43;;
36241;SDS011;22283;42.748;12.732;2023-03-19T00:16:33;16.57;;;5.53;;
36241;SDS011;22283;42.748;12.732;2023-03-19T00:21:35;12.40;;;5.00;;
36241;SDS011;22283;42.748;12.732;2023-03-19T00:26:36;13.63;;;5.10;;
36241;SDS011;22283;42.748;12.732;2023-03-19T00:31:37;17.40;;;5.03;;
36241;SDS011;22283;42.748;12.732;2023-03-19T00:36:37;13.77;;;4.43;;
36241;SDS011;22283;42.748;12.732;2023-03-19T00:41:39;18.98;;;4.50;;
36241;SDS011;22283;42.748;12.732;2023-03-19T00:46:39;14.50;;;4.67;;
36241;SDS011;22283;42.748;12.732;2023-03-19T00:51:41;13.50;;;4.22;;
36241;SDS011;22283;42.748;12.732;2023-03-19T00:56:43;10.93;;;4.07;;
36241;SDS011;22283;42.748;12.732;2023-03-19T01:01:43;16.07;;;4.40;;
36241;SDS011;22283;42.748;12.732;2023-03-19T01:06:44;16.50;;;4.57;;
36241;SDS011;22283;42.748;12.732;2023-03-19T01:11:45;16.07;;;4.17;;
36241;SDS011;22283;42.748;12.732;2023-03-19T01:16:45;20.03;;;4.53;;
36241;SDS011;22283;42.748;12.732;2023-03-19T01:21:46;9.87;;;3.30;;
36241;SDS011;22283;42.748;12.732;2023-03-19T01:26:53;9.98;;;3.22;;
36241;SDS011;22283;42.748;12.732;2023-03-19T01:32:07;13.45;;;4.18;;
36241;SDS011;22283;42.748;12.732;2023-03-19T01:37:28;15.32;;;4.18;;
36241;SDS011;22283;42.748;12.732;2023-03-19T01:42:29;14.23;;;4.33;;
36241;SDS011;22283;42.748;12.732;2023-03-19T01:53:54;10.52;;;4.35;;
36241;SDS011;22283;42.748;12.732;2023-03-19T01:59:26;12.25;;;4.35;;
36241;SDS011;22283;42.748;12.732;2023-03-19T02:04:51;10.63;;;4.00;;
36241;SDS011;22283;42.748;12.732;2023-03-19T02:09:57;17.63;;;4.75;;
36241;SDS011;22283;42.748;12.732;2023-03-19T02:15:00;14.68;;;4.05;;
36241;SDS011;22283;42.748;12.732;2023-03-19T02:20:03;18.07;;;4.37;;
36241;SDS011;22283;42.748;12.732;2023-03-19T02:25:18;12.27;;;4.57;;
36241;SDS011;22283;42.748;12.732;2023-03-19T02:30:28;14.25;;;5.75;;
36241;SDS011;22283;42.748;12.732;2023-03-19T02:35:34;10.10;;;3.97;;
36241;SDS011;22283;42.748;12.732;2023-03-19T02:40:40;12.35;;;4.80;;
36241;SDS011;22283;42.748;12.732;2023-03-19T02:45:49;14.15;;;4.68;;
36241;SDS011;22283;42.748;12.732;2023-03-19T02:50:51;17.25;;;4.70;;
36241;SDS011;22283;42.748;12.732;2023-03-19T02:55:51;12.83;;;4.10;;
36241;SDS011;22283;42.748;12.732;2023-03-19T03:00:52;6.83;;;4.27;;
36241;SDS011;22283;42.748;12.732;2023-03-19T03:05:54;11.05;;;4.80;;
36241;SDS011;22283;42.748;12.732;2023-03-19T03:10:54;12.57;;;6.33;;
36241;SDS011;22283;42.748;12.732;2023-03-19T03:15:55;9.73;;;4.73;;
36241;SDS011;22283;42.748;12.732;2023-03-19T03:20:56;11.23;;;5.53;;
36241;SDS011;22283;42.748;12.732;2023-03-19T03:25:57;17.27;;;5.80;;
36241;SDS011;22283;42.748;12.732;2023-03-19T03:30:58;14.00;;;5.00;;
36241;SDS011;22283;42.748;12.732;2023-03-19T03:36:00;13.23;;;5.40;;
36241;SDS011;22283;42.748;12.732;2023-03-19T03:41:00;16.70;;;5.43;;
36241;SDS011;22283;42.748;12.732;2023-03-19T03:46:01;11.57;;;4.87;;
36241;SDS011;22283;42.748;12.732;2023-03-19T03:51:02;13.07;;;4.97;;
36241;SDS011;22283;42.748;12.732;2023-03-19T03:56:04;14.90;;;4.88;;
36241;SDS011;22283;42.748;12.732;2023-03-19T04:01:05;16.42;;;6.78;;
36241;SDS011;22283;42.748;12.732;2023-03-19T04:06:06;13.93;;;6.32;;
36241;SDS011;22283;42.748;12.732;2023-03-19T04:11:12;11.93;;;5.95;;
36241;SDS011;22283;42.748;12.732;2023-03-19T04:16:13;18.50;;;5.75;;
36241;SDS011;22283;42.748;12.732;2023-03-19T04:21:15;14.82;;;5.35;;
36241;SDS011;22283;42.748;12.732;2023-03-19T04:26:15;10.67;;;4.70;;
36241;SDS011;22283;42.748;12.732;2023-03-19T04:31:16;8.63;;;5.10;;
36241;SDS011;22283;42.748;12.732;2023-03-19T04:41:19;16.63;;;5.32;;
36241;SDS011;22283;42.748;12.732;2023-03-19T04:46:35;16.17;;;5.40;;
36241;SDS011;22283;42.748;12.732;2023-03-19T04:51:36;10.07;;;4.53;;
36241;SDS011;22283;42.748;12.732;2023-03-19T04:56:37;13.93;;;5.03;;
36241;SDS011;22283;42.748;12.732;2023-03-19T05:01:38;10.97;;;4.73;;
36241;SDS011;22283;42.748;12.732;2023-03-19T05:06:42;9.15;;;4.88;;
36241;SDS011;22283;42.748;12.732;2023-03-19T05:11:43;14.40;;;5.40;;
36241;SDS011;22283;42.748;12.732;2023-03-19T05:16:49;10.25;;;4.93;;
36241;SDS011;22283;42.748;12.732;2023-03-19T05:21:51;16.60;;;4.70;;
36241;SDS011;22283;42.748;12.732;2023-03-19T05:26:56;10.48;;;5.53;;
36241;SDS011;22283;42.748;12.732;2023-03-19T05:32:10;10.18;;;5.35;;
36241;SDS011;22283;42.748;12.732;2023-03-19T05:37:12;15.85;;;5.78;;
36241;SDS011;22283;42.748;12.732;2023-03-19T05:42:15;14.10;;;5.68;;
36241;SDS011;22283;42.748;12.732;2023-03-19T05:47:16;14.70;;;5.33;;
36241;SDS011;22283;42.748;12.732;2023-03-19T05:52:23;11.70;;;5.20;;
36241;SDS011;22283;42.748;12.732;2023-03-19T05:57:26;10.48;;;5.00;;
36241;SDS011;22283;42.748;12.732;2023-03-19T06:02:35;14.60;;;5.60;;
36241;SDS011;22283;42.748;12.732;2023-03-19T06:08:08;14.93;;;5.47;;
36241;SDS011;22283;42.748;12.732;2023-03-19T06:13:29;11.93;;;4.75;;
36241;SDS011;22283;42.748;12.732;2023-03-19T06:18:32;10.27;;;4.95;;
36241;SDS011;22283;42.748;12.732;2023-03-19T06:23:37;13.35;;;5.40;;
36241;SDS011;22283;42.748;12.732;2023-03-19T06:28:40;16.88;;;5.38;;
36241;SDS011;22283;42.748;12.732;2023-03-19T06:33:41;22.25;;;5.65;;
36241;SDS011;22283;42.748;12.732;2023-03-19T06:38:42;17.38;;;5.18;;
36241;SDS011;22283;42.748;12.732;2023-03-19T06:43:43;12.50;;;5.00;;
36241;SDS011;22283;42.748;12.732;2023-03-19T06:48:44;9.00;;;4.50;;
36241;SDS011;22283;42.748;12.732;2023-03-19T06:53:44;17.97;;;5.60;;
36241;SDS011;22283;42.748;12.732;2023-03-19T06:58:45;13.60;;;4.73;;
36241;SDS011;22283;42.748;12.732;2023-03-19T07:03:46;12.53;;;5.17;;
36241;SDS011;22283;42.748;12.732;2023-03-19T07:08:46;19.50;;;5.37;;
36241;SDS011;22283;42.748;12.732;2023-03-19T07:13:47;10.40;;;5.07;;
36241;SDS011;22283;42.748;12.732;2023-03-19T07:18:48;10.63;;;4.87;;
36241;SDS011;22283;42.748;12.732;2023-03-19T07:23:49;17.30;;;5.37;;
36241;SDS011;22283;42.748;12.732;2023-03-19T07:28:50;14.27;;;4.78;;
36241;SDS011;22283;42.748;12.732;2023-03-19T07:33:50;9.87;;;5.60;;
36241;SDS011;22283;42.748;12.732;2023-03-19T07:38:51;13.10;;;6.20;;
36241;SDS011;22283;42.748;12.732;2023-03-19T07:43:51;18.63;;;7.37;;
36241;SDS011;22283;42.748;12.732;2023-03-19T07:48:52;16.50;;;7.20;;
36241;SDS011;22283;42.748;12.732;2023-03-19T07:53:53;16.95;;;7.55;;
36241;SDS011;22283;42.748;12.732;2023-03-19T07:58:54;16.63;;;6.90;;
36241;SDS011;22283;42.748;12.732;2023-03-19T08:03:55;13.02;;;7.13;;
36241;SDS011;22283;42.748;12.732;2023-03-19T08:08:56;21.10;;;6.00;;
36241;SDS011;22283;42.748;12.732;2023-03-19T08:13:57;16.27;;;5.97;;
36241;SDS011;22283;42.748;12.732;2023-03-19T08:18:57;12.17;;;7.20;;
36241;SDS011;22283;42.748;12.732;2023-03-19T08:23:58;13.60;;;5.87;;
36241;SDS011;22283;42.748;12.732;2023-03-19T08:28:59;12.00;;;5.43;;
36241;SDS011;22283;42.748;12.732;2023-03-19T08:34:00;13.65;;;5.82;;
36241;SDS011;22283;42.748;12.732;2023-03-19T08:39:03;10.90;;;5.22;;
36241;SDS011;22283;42.748;12.732;2023-03-19T08:44:04;10.07;;;4.85;;
36241;SDS011;22283;42.748;12.732;2023-03-19T08:49:04;10.68;;;4.10;;
36241;SDS011;22283;42.748;12.732;2023-03-19T08:54:05;12.32;;;4.85;;
36241;SDS011;22283;42.748;12.732;2023-03-19T08:59:06;10.77;;;3.88;;
36241;SDS011;22283;42.748;12.732;2023-03-19T09:04:07;11.40;;;5.20;;
36241;SDS011;22283;42.748;12.732;2023-03-19T09:09:08;9.50;;;4.20;;
36241;SDS011;22283;42.748;12.732;2023-03-19T09:14:08;9.97;;;3.13;;
36241;SDS011;22283;42.748;12.732;2023-03-19T09:19:10;7.68;;;2.95;;
36241;SDS011;22283;42.748;12.732;2023-03-19T09:24:11;14.57;;;4.55;;
36241;SDS011;22283;42.748;12.732;2023-03-19T09:29:12;10.30;;;3.87;;
36241;SDS011;22283;42.748;12.732;2023-03-19T09:34:13;7.95;;;3.97;;
36241;SDS011;22283;42.748;12.732;2023-03-19T09:39:14;11.30;;;3.87;;
36241;SDS011;22283;42.748;12.732;2023-03-19T09:44:25;11.13;;;4.27;;
36241;SDS011;22283;42.748;12.732;2023-03-19T09:49:29;12.75;;;4.93;;
36241;SDS011;22283;42.748;12.732;2023-03-19T09:54:38;40.42;;;22.60;;
36241;SDS011;22283;42.748;12.732;2023-03-19T09:59:42;11.50;;;4.25;;
36241;SDS011;22283;42.748;12.732;2023-03-19T10:15:28;13.77;;;3.80;;
36241;SDS011;22283;42.748;12.732;2023-03-19T10:26:16;14.57;;;4.85;;
36241;SDS011;22283;42.748;12.732;2023-03-19T10:32:26;11.05;;;5.25;;
36241;SDS011;22283;42.748;12.732;2023-03-19T10:36:56;13.13;;;4.80;;
36241;SDS011;22283;42.748;12.732;2023-03-19T10:42:05;22.83;;;5.45;;
36241;SDS011;22283;42.748;12.732;2023-03-19T10:47:23;10.98;;;5.57;;
36241;SDS011;22283;42.748;12.732;2023-03-19T10:52:27;11.40;;;4.75;;
36241;SDS011;22283;42.748;12.732;2023-03-19T10:57:30;10.68;;;4.95;;
36241;SDS011;22283;42.748;12.732;2023-03-19T11:02:32;13.52;;;4.40;;
36241;SDS011;22283;42.748;12.732;2023-03-19T11:07:35;11.77;;;4.35;;
36241;SDS011;22283;42.748;12.732;2023-03-19T11:12:36;25.30;;;5.65;;
36241;SDS011;22283;42.748;12.732;2023-03-19T11:17:45;12.00;;;5.20;;
36241;SDS011;22283;42.748;12.732;2023-03-19T11:22:47;14.98;;;5.43;;
36241;SDS011;22283;42.748;12.732;2023-03-19T11:33:09;11.95;;;6.00;;
36241;SDS011;22283;42.748;12.732;2023-03-19T11:38:19;11.13;;;5.75;;
36241;SDS011;22283;42.748;12.732;2023-03-19T11:43:39;10.25;;;5.05;;
36241;SDS011;22283;42.748;12.732;2023-03-19T11:48:59;13.00;;;5.10;;
36241;SDS011;22283;42.748;12.732;2023-03-19T11:54:04;18.27;;;4.72;;
36241;SDS011;22283;42.748;12.732;2023-03-19T12:04:35;17.65;;;9.32;;
36241;SDS011;22283;42.748;12.732;2023-03-19T12:15:41;11.88;;;5.60;;
36241;SDS011;22283;42.748;12.732;2023-03-19T12:31:18;16.67;;;6.97;;
36241;SDS011;22283;42.748;12.732;2023-03-19T12:36:47;14.88;;;6.72;;
36241;SDS011;22283;42.748;12.732;2023-03-19T12:42:16;16.77;;;6.57;;
36241;SDS011;22283;42.748;12.732;2023-03-19T12:47:30;13.93;;;6.15;;
36241;SDS011;22283;42.748;12.732;2023-03-19T12:52:35;12.90;;;5.38;;
36241;SDS011;22283;42.748;12.732;2023-03-19T12:58:00;14.60;;;5.38;;
36241;SDS011;22283;42.748;12.732;2023-03-19T13:03:10;18.05;;;8.05;;
36241;SDS011;22283;42.748;12.732;2023-03-19T13:13:25;8.98;;;4.43;;
36241;SDS011;22283;42.748;12.732;2023-03-19T13:29:19;11.25;;;3.97;;
36241;SDS011;22283;42.748;12.732;2023-03-19T13:34:25;6.45;;;3.10;;
36241;SDS011;22283;42.748;12.732;2023-03-19T13:39:28;11.60;;;3.63;;
36241;SDS011;22283;42.748;12.732;2023-03-19T13:44:34;12.88;;;3.50;;
36241;SDS011;22283;42.748;12.732;2023-03-19T13:49:35;10.82;;;4.75;;
36241;SDS011;22283;42.748;12.732;2023-03-19T13:54:39;15.50;;;3.87;;
36241;SDS011;22283;42.748;12.732;2023-03-19T13:59:43;11.05;;;6.03;;
36241;SDS011;22283;42.748;12.732;2023-03-19T14:05:02;12.23;;;5.05;;
36241;SDS011;22283;42.748;12.732;2023-03-19T14:15:22;11.15;;;5.22;;
36241;SDS011;22283;42.748;12.732;2023-03-19T14:20:24;15.07;;;6.07;;
36241;SDS011;22283;42.748;12.732;2023-03-19T14:30:51;15.38;;;7.78;;
36241;SDS011;22283;42.748;12.732;2023-03-19T14:35:53;20.65;;;7.50;;
36241;SDS011;22283;42.748;12.732;2023-03-19T14:40:57;11.70;;;4.75;;
36241;SDS011;22283;42.748;12.732;2023-03-19T14:46:01;13.68;;;5.07;;
36241;SDS011;22283;42.748;12.732;2023-03-19T14:56:43;11.40;;;2.92;;
36241;SDS011;22283;42.748;12.732;2023-03-19T15:01:48;7.18;;;2.95;;
36241;SDS011;22283;42.748;12.732;2023-03-19T15:06:53;18.45;;;6.68;;
36241;SDS011;22283;42.748;12.732;2023-03-19T15:12:06;15.35;;;8.27;;
36241;SDS011;22283;42.748;12.732;2023-03-19T15:22:25;13.20;;;5.07;;
36241;SDS011;22283;42.748;12.732;2023-03-19T15:27:30;12.95;;;4.70;;
36241;SDS011;22283;42.748;12.732;2023-03-19T15:37:40;13.55;;;4.57;;
36241;SDS011;22283;42.748;12.732;2023-03-19T15:42:43;14.90;;;5.47;;
36241;SDS011;22283;42.748;12.732;2023-03-19T15:48:10;13.38;;;5.25;;
36241;SDS011;22283;42.748;12.732;2023-03-19T15:53:12;11.70;;;5.72;;
36241;SDS011;22283;42.748;12.732;2023-03-19T15:58:21;12.15;;;5.68;;
36241;SDS011;22283;42.748;12.732;2023-03-19T16:03:35;12.77;;;6.43;;
36241;SDS011;22283;42.748;12.732;2023-03-19T16:08:49;15.05;;;6.28;;
36241;SDS011;22283;42.748;12.732;2023-03-19T16:13:55;15.07;;;6.25;;
36241;SDS011;22283;42.748;12.732;2023-03-19T16:18:59;21.67;;;10.07;;
36241;SDS011;22283;42.748;12.732;2023-03-19T16:24:02;18.25;;;6.97;;
36241;SDS011;22283;42.748;12.732;2023-03-19T16:34:22;17.98;;;6.35;;
36241;SDS011;22283;42.748;12.732;2023-03-19T16:44:30;11.73;;;5.60;;
36241;SDS011;22283;42.748;12.732;2023-03-19T16:49:31;12.60;;;6.20;;
36241;SDS011;22283;42.748;12.732;2023-03-19T16:54:32;20.50;;;9.93;;
36241;SDS011;22283;42.748;12.732;2023-03-19T16:59:32;29.50;;;14.33;;
36241;SDS011;22283;42.748;12.732;2023-03-19T17:04:34;26.88;;;11.85;;
36241;SDS011;22283;42.748;12.732;2023-03-19T17:09:35;29.03;;;12.97;;
36241;SDS011;22283;42.748;12.732;2023-03-19T17:14:35;19.73;;;11.53;;
36241;SDS011;22283;42.748;12.732;2023-03-19T17:19:37;25.10;;;14.82;;
36241;SDS011;22283;42.748;12.732;2023-03-19T17:24:38;25.63;;;12.90;;
36241;SDS011;22283;42.748;12.732;2023-03-19T17:29:38;17.97;;;10.63;;
36241;SDS011;22283;42.748;12.732;2023-03-19T17:34:39;33.13;;;11.10;;
36241;SDS011;22283;42.748;12.732;2023-03-19T17:39:40;23.13;;;10.27;;
36241;SDS011;22283;42.748;12.732;2023-03-19T17:44:41;21.90;;;8.73;;
36241;SDS011;22283;42.748;12.732;2023-03-19T17:49:48;24.73;;;9.73;;
36241;SDS011;22283;42.748;12.732;2023-03-19T17:54:48;16.38;;;9.15;;
36241;SDS011;22283;42.748;12.732;2023-03-19T17:59:49;19.23;;;10.47;;
36241;SDS011;22283;42.748;12.732;2023-03-19T18:04:50;21.10;;;9.60;;
36241;SDS011;22283;42.748;12.732;2023-03-19T18:09:50;21.90;;;9.17;;
36241;SDS011;22283;42.748;12.732;2023-03-19T18:14:51;32.73;;;13.80;;
36241;SDS011;22283;42.748;12.732;2023-03-19T18:19:51;22.00;;;11.47;;
36241;SDS011;22283;42.748;12.732;2023-03-19T18:29:54;21.35;;;9.88;;
36241;SDS011;22283;42.748;12.732;2023-03-19T18:34:54;28.33;;;12.90;;
36241;SDS011;22283;42.748;12.732;2023-03-19T18:39:56;32.75;;;18.33;;
36241;SDS011;22283;42.748;12.732;2023-03-19T18:44:56;23.60;;;14.53;;
36241;SDS011;22283;42.748;12.732;2023-03-19T18:49:57;29.37;;;15.33;;
36241;SDS011;22283;42.748;12.732;2023-03-19T18:54:57;27.53;;;13.80;;
36241;SDS011;22283;42.748;12.732;2023-03-19T18:59:58;26.73;;;13.40;;
36241;SDS011;22283;42.748;12.732;2023-03-19T19:05:00;22.25;;;11.18;;
36241;SDS011;22283;42.748;12.732;2023-03-19T19:10:01;32.83;;;15.07;;
36241;SDS011;22283;42.748;12.732;2023-03-19T19:15:05;26.27;;;13.23;;
36241;SDS011;22283;42.748;12.732;2023-03-19T19:20:15;23.63;;;12.95;;
36241;SDS011;22283;42.748;12.732;2023-03-19T19:25:24;23.10;;;11.50;;
36241;SDS011;22283;42.748;12.732;2023-03-19T19:30:26;22.80;;;13.32;;
36241;SDS011;22283;42.748;12.732;2023-03-19T19:35:27;24.77;;;14.38;;
36241;SDS011;22283;42.748;12.732;2023-03-19T19:40:28;20.30;;;12.63;;
36241;SDS011;22283;42.748;12.732;2023-03-19T19:45:31;30.67;;;14.18;;
36241;SDS011;22283;42.748;12.732;2023-03-19T19:50:35;22.92;;;13.10;;
36241;SDS011;22283;42.748;12.732;2023-03-19T19:55:36;29.90;;;12.50;;
36241;SDS011;22283;42.748;12.732;2023-03-19T20:00:37;19.92;;;11.68;;
36241;SDS011;22283;42.748;12.732;2023-03-19T20:05:38;25.70;;;11.63;;
36241;SDS011;22283;42.748;12.732;2023-03-19T20:10:39;33.13;;;13.07;;
36241;SDS011;22283;42.748;12.732;2023-03-19T20:15:40;24.45;;;11.73;;
36241;SDS011;22283;42.748;12.732;2023-03-19T20:20:41;19.17;;;10.73;;
36241;SDS011;22283;42.748;12.732;2023-03-19T20:25:45;19.27;;;10.23;;
36241;SDS011;22283;42.748;12.732;2023-03-19T20:30:46;18.92;;;12.18;;
36241;SDS011;22283;42.748;12.732;2023-03-19T20:35:49;25.35;;;12.05;;
36241;SDS011;22283;42.748;12.732;2023-03-19T20:45:55;29.63;;;16.27;;
36241;SDS011;22283;42.748;12.732;2023-03-19T20:51:00;28.63;;;17.48;;
36241;SDS011;22283;42.748;12.732;2023-03-19T20:56:01;25.27;;;16.95;;
36241;SDS011;22283;42.748;12.732;2023-03-19T21:01:03;32.70;;;17.95;;
36241;SDS011;22283;42.748;12.732;2023-03-19T21:06:05;30.48;;;16.35;;
36241;SDS011;22283;42.748;12.732;2023-03-19T21:11:19;28.15;;;14.10;;
36241;SDS011;22283;42.748;12.732;2023-03-19T21:16:22;24.10;;;13.68;;
36241;SDS011;22283;42.748;12.732;2023-03-19T21:21:34;24.73;;;14.45;;
36241;SDS011;22283;42.748;12.732;2023-03-19T21:26:36;25.40;;;15.30;;
36241;SDS011;22283;42.748;12.732;2023-03-19T21:31:41;25.23;;;13.30;;
36241;SDS011;22283;42.748;12.732;2023-03-19T21:36:42;22.30;;;12.87;;
36241;SDS011;22283;42.748;12.732;2023-03-19T21:41:43;25.03;;;13.23;;
36241;SDS011;22283;42.748;12.732;2023-03-19T21:46:46;20.60;;;11.95;;
36241;SDS011;22283;42.748;12.732;2023-03-19T21:51:48;26.08;;;10.93;;
36241;SDS011;22283;42.748;12.732;2023-03-19T21:56:49;20.58;;;11.35;;
36241;SDS011;22283;42.748;12.732;2023-03-19T22:01:50;19.92;;;13.63;;
36241;SDS011;22283;42.748;12.732;2023-03-19T22:06:50;45.43;;;24.37;;
36241;SDS011;22283;42.748;12.732;2023-03-19T22:11:52;49.70;;;28.23;;
36241;SDS011;22283;42.748;12.732;2023-03-19T22:16:53;81.33;;;43.43;;
36241;SDS011;22283;42.748;12.732;2023-03-19T22:21:54;31.90;;;20.48;;
36241;SDS011;22283;42.748;12.732;2023-03-19T22:26:55;17.23;;;9.33;;
36241;SDS011;22283;42.748;12.732;2023-03-19T22:31:57;23.58;;;10.35;;
36241;SDS011;22283;42.748;12.732;2023-03-19T22:36:58;13.83;;;7.00;;
36241;SDS011;22283;42.748;12.732;2023-03-19T22:41:59;17.88;;;6.80;;
36241;SDS011;22283;42.748;12.732;2023-03-19T22:47:00;15.50;;;7.67;;
36241;SDS011;22283;42.748;12.732;2023-03-19T22:52:01;14.63;;;6.43;;
36241;SDS011;22283;42.748;12.732;2023-03-19T22:57:01;13.60;;;6.57;;
36241;SDS011;22283;42.748;12.732;2023-03-19T23:02:02;18.97;;;7.33;;
36241;SDS011;22283;42.748;12.732;2023-03-19T23:07:03;12.17;;;5.90;;
36241;SDS011;22283;42.748;12.732;2023-03-19T23:12:04;11.80;;;5.87;;
36241;SDS011;22283;42.748;12.732;2023-03-19T23:17:12;17.00;;;6.55;;
36241;SDS011;22283;42.748;12.732;2023-03-19T23:22:16;20.27;;;6.72;;
36241;SDS011;22283;42.748;12.732;2023-03-19T23:27:22;15.83;;;6.57;;
36241;SDS011;22283;42.748;12.732;2023-03-19T23:32:24;12.88;;;7.15;;
36241;SDS011;22283;42.748;12.732;2023-03-19T23:37:25;17.83;;;8.80;;
36241;SDS011;22283;42.748;12.732;2023-03-19T23:42:28;18.25;;;8.68;;
36241;SDS011;22283;42.748;12.732;2023-03-19T23:47:31;14.30;;;8.82;;
36241;SDS011;22283;42.748;12.732;2023-03-19T23:57:33;20.77;;;13.82;;
